sensor_id;sensor_type;location;lat;lon;timestamp;P1;durP1;ratioP1;P2;durP2;ratioP2
26594;SDS011;14238;49.496;8.154;2023-04-24T00:01:41;1.43;;;1.10;;
26594;SDS011;14238;49.496;8.154;2023-04-24T00:04:07;1.10;;;1.00;;
26594;SDS011;14238;49.496;8.154;2023-04-24T00:06:36;2.40;;;1.00;;
26594;SDS011;14238;49.496;8.154;2023-04-24T00:09:02;1.60;;;1.40;;
26594;SDS011;14238;49.496;8.154;2023-04-24T00:11:28;1.17;;;1.00;;
26594;SDS011;14238;49.496;8.154;2023-04-24T00:13:55;1.40;;;1.30;;
26594;SDS011;14238;49.496;8.154;2023-04-24T00:16:21;1.40;;;1.30;;
26594;SDS011;14238;49.496;8.154;2023-04-24T00:18:47;1.47;;;1.17;;
26594;SDS011;14238;49.496;8.154;2023-04-24T00:21:14;1.13;;;1.03;;
26594;SDS011;14238;49.496;8.154;2023-04-24T00:23:42;1.60;;;1.40;;
26594;SDS011;14238;49.496;8.154;2023-04-24T00:26:08;1.60;;;1.40;;
26594;SDS011;14238;49.496;8.154;2023-04-24T00:28:34;1.00;;;1.00;;
26594;SDS011;14238;49.496;8.154;2023-04-24T00:30:59;1.53;;;1.10;;
26594;SDS011;14238;49.496;8.154;2023-04-24T00:33:25;1.53;;;1.10;;
26594;SDS011;14238;49.496;8.154;2023-04-24T00:35:50;2.00;;;1.10;;
26594;SDS011;14238;49.496;8.154;2023-04-24T00:38:16;1.60;;;1.33;;
26594;SDS011;14238;49.496;8.154;2023-04-24T00:40:41;1.13;;;1.13;;
26594;SDS011;14238;49.496;8.154;2023-04-24T00:43:07;2.27;;;1.07;;
26594;SDS011;14238;49.496;8.154;2023-04-24T00:45:33;2.23;;;1.30;;
26594;SDS011;14238;49.496;8.154;2023-04-24T00:47:58;1.53;;;1.23;;
26594;SDS011;14238;49.496;8.154;2023-04-24T00:50:25;1.93;;;1.53;;
26594;SDS011;14238;49.496;8.154;2023-04-24T00:52:51;1.27;;;1.10;;
26594;SDS011;14238;49.496;8.154;2023-04-24T00:55:17;2.20;;;1.43;;
26594;SDS011;14238;49.496;8.154;2023-04-24T00:57:43;2.17;;;1.10;;
26594;SDS011;14238;49.496;8.154;2023-04-24T01:00:10;1.20;;;1.10;;
26594;SDS011;14238;49.496;8.154;2023-04-24T01:02:40;1.30;;;1.20;;
26594;SDS011;14238;49.496;8.154;2023-04-24T01:05:11;1.57;;;1.40;;
26594;SDS011;14238;49.496;8.154;2023-04-24T01:07:38;1.20;;;1.10;;
26594;SDS011;14238;49.496;8.154;2023-04-24T01:10:05;1.20;;;1.13;;
26594;SDS011;14238;49.496;8.154;2023-04-24T01:12:32;2.20;;;1.23;;
26594;SDS011;14238;49.496;8.154;2023-04-24T01:14:58;2.67;;;1.30;;
26594;SDS011;14238;49.496;8.154;2023-04-24T01:17:24;2.70;;;1.40;;
26594;SDS011;14238;49.496;8.154;2023-04-24T01:19:50;2.03;;;1.10;;
26594;SDS011;14238;49.496;8.154;2023-04-24T01:22:19;1.93;;;1.03;;
26594;SDS011;14238;49.496;8.154;2023-04-24T01:24:45;1.90;;;1.13;;
26594;SDS011;14238;49.496;8.154;2023-04-24T01:27:11;1.10;;;0.97;;
26594;SDS011;14238;49.496;8.154;2023-04-24T01:29:37;1.27;;;1.10;;
26594;SDS011;14238;49.496;8.154;2023-04-24T01:32:03;3.23;;;1.20;;
26594;SDS011;14238;49.496;8.154;2023-04-24T01:34:29;1.23;;;1.00;;
26594;SDS011;14238;49.496;8.154;2023-04-24T01:36:55;2.40;;;1.40;;
26594;SDS011;14238;49.496;8.154;2023-04-24T01:39:21;1.53;;;1.30;;
26594;SDS011;14238;49.496;8.154;2023-04-24T01:41:50;2.63;;;1.43;;
26594;SDS011;14238;49.496;8.154;2023-04-24T01:44:16;1.13;;;1.00;;
26594;SDS011;14238;49.496;8.154;2023-04-24T01:46:43;4.10;;;1.27;;
26594;SDS011;14238;49.496;8.154;2023-04-24T01:49:08;1.10;;;1.10;;
26594;SDS011;14238;49.496;8.154;2023-04-24T01:51:34;1.17;;;1.03;;
26594;SDS011;14238;49.496;8.154;2023-04-24T01:54:00;2.23;;;0.97;;
26594;SDS011;14238;49.496;8.154;2023-04-24T01:56:25;4.80;;;1.23;;
26594;SDS011;14238;49.496;8.154;2023-04-24T01:58:58;1.23;;;1.03;;
26594;SDS011;14238;49.496;8.154;2023-04-24T02:01:25;4.80;;;1.90;;
26594;SDS011;14238;49.496;8.154;2023-04-24T02:03:50;1.23;;;0.80;;
26594;SDS011;14238;49.496;8.154;2023-04-24T02:06:17;2.20;;;1.50;;
26594;SDS011;14238;49.496;8.154;2023-04-24T02:08:43;1.57;;;1.33;;
26594;SDS011;14238;49.496;8.154;2023-04-24T02:11:09;1.20;;;1.00;;
26594;SDS011;14238;49.496;8.154;2023-04-24T02:13:35;2.20;;;1.00;;
26594;SDS011;14238;49.496;8.154;2023-04-24T02:16:00;2.70;;;0.97;;
26594;SDS011;14238;49.496;8.154;2023-04-24T02:18:26;1.30;;;1.30;;
26594;SDS011;14238;49.496;8.154;2023-04-24T02:20:52;3.03;;;1.87;;
26594;SDS011;14238;49.496;8.154;2023-04-24T02:23:18;1.60;;;1.50;;
26594;SDS011;14238;49.496;8.154;2023-04-24T02:25:43;1.90;;;1.47;;
26594;SDS011;14238;49.496;8.154;2023-04-24T02:28:09;1.70;;;1.60;;
26594;SDS011;14238;49.496;8.154;2023-04-24T02:30:34;2.00;;;1.80;;
26594;SDS011;14238;49.496;8.154;2023-04-24T02:33:00;1.73;;;1.63;;
26594;SDS011;14238;49.496;8.154;2023-04-24T02:35:25;2.87;;;1.63;;
26594;SDS011;14238;49.496;8.154;2023-04-24T02:37:51;3.40;;;2.07;;
26594;SDS011;14238;49.496;8.154;2023-04-24T02:40:16;2.27;;;2.17;;
26594;SDS011;14238;49.496;8.154;2023-04-24T02:42:42;2.43;;;2.33;;
26594;SDS011;14238;49.496;8.154;2023-04-24T02:45:08;2.83;;;2.63;;
26594;SDS011;14238;49.496;8.154;2023-04-24T02:47:33;2.77;;;2.57;;
26594;SDS011;14238;49.496;8.154;2023-04-24T02:49:59;3.10;;;2.90;;
26594;SDS011;14238;49.496;8.154;2023-04-24T02:52:25;2.80;;;2.67;;
26594;SDS011;14238;49.496;8.154;2023-04-24T02:54:50;2.57;;;2.47;;
26594;SDS011;14238;49.496;8.154;2023-04-24T02:57:16;2.67;;;2.57;;
26594;SDS011;14238;49.496;8.154;2023-04-24T02:59:41;2.60;;;2.50;;
26594;SDS011;14238;49.496;8.154;2023-04-24T03:02:07;2.70;;;2.50;;
26594;SDS011;14238;49.496;8.154;2023-04-24T03:04:32;2.67;;;2.47;;
26594;SDS011;14238;49.496;8.154;2023-04-24T03:06:58;2.67;;;2.50;;
26594;SDS011;14238;49.496;8.154;2023-04-24T03:09:23;2.50;;;2.40;;
26594;SDS011;14238;49.496;8.154;2023-04-24T03:11:49;6.30;;;2.97;;
26594;SDS011;14238;49.496;8.154;2023-04-24T03:14:15;3.03;;;2.77;;
26594;SDS011;14238;49.496;8.154;2023-04-24T03:16:41;2.90;;;2.70;;
26594;SDS011;14238;49.496;8.154;2023-04-24T03:19:06;2.43;;;2.33;;
26594;SDS011;14238;49.496;8.154;2023-04-24T03:21:32;2.57;;;2.47;;
26594;SDS011;14238;49.496;8.154;2023-04-24T03:23:58;2.60;;;2.50;;
26594;SDS011;14238;49.496;8.154;2023-04-24T03:26:23;3.00;;;2.80;;
26594;SDS011;14238;49.496;8.154;2023-04-24T03:28:49;3.27;;;3.07;;
26594;SDS011;14238;49.496;8.154;2023-04-24T03:31:15;2.83;;;2.67;;
26594;SDS011;14238;49.496;8.154;2023-04-24T03:33:41;3.23;;;3.03;;
26594;SDS011;14238;49.496;8.154;2023-04-24T03:36:07;3.60;;;3.30;;
26594;SDS011;14238;49.496;8.154;2023-04-24T03:38:32;3.40;;;3.10;;
26594;SDS011;14238;49.496;8.154;2023-04-24T03:40:58;3.27;;;3.07;;
26594;SDS011;14238;49.496;8.154;2023-04-24T03:43:23;3.53;;;3.23;;
26594;SDS011;14238;49.496;8.154;2023-04-24T03:45:49;3.70;;;3.50;;
26594;SDS011;14238;49.496;8.154;2023-04-24T03:48:15;3.80;;;3.50;;
26594;SDS011;14238;49.496;8.154;2023-04-24T03:50:41;3.90;;;3.63;;
26594;SDS011;14238;49.496;8.154;2023-04-24T03:53:06;4.10;;;3.87;;
26594;SDS011;14238;49.496;8.154;2023-04-24T03:55:32;3.47;;;3.27;;
26594;SDS011;14238;49.496;8.154;2023-04-24T03:57:57;4.97;;;4.47;;
26594;SDS011;14238;49.496;8.154;2023-04-24T04:00:23;4.60;;;4.30;;
26594;SDS011;14238;49.496;8.154;2023-04-24T04:02:49;4.37;;;4.07;;
26594;SDS011;14238;49.496;8.154;2023-04-24T04:05:15;4.87;;;4.57;;
26594;SDS011;14238;49.496;8.154;2023-04-24T04:07:40;4.53;;;4.20;;
26594;SDS011;14238;49.496;8.154;2023-04-24T04:10:06;4.93;;;4.53;;
26594;SDS011;14238;49.496;8.154;2023-04-24T04:12:32;4.77;;;4.47;;
26594;SDS011;14238;49.496;8.154;2023-04-24T04:14:58;4.63;;;4.33;;
26594;SDS011;14238;49.496;8.154;2023-04-24T04:17:23;4.43;;;4.13;;
26594;SDS011;14238;49.496;8.154;2023-04-24T04:19:49;4.87;;;4.37;;
26594;SDS011;14238;49.496;8.154;2023-04-24T04:22:15;5.33;;;4.87;;
26594;SDS011;14238;49.496;8.154;2023-04-24T04:24:41;4.83;;;4.43;;
26594;SDS011;14238;49.496;8.154;2023-04-24T04:27:06;4.80;;;4.50;;
26594;SDS011;14238;49.496;8.154;2023-04-24T04:29:34;5.30;;;4.73;;
26594;SDS011;14238;49.496;8.154;2023-04-24T04:32:00;5.00;;;4.60;;
26594;SDS011;14238;49.496;8.154;2023-04-24T04:34:27;4.80;;;4.50;;
26594;SDS011;14238;49.496;8.154;2023-04-24T04:36:53;4.53;;;4.23;;
26594;SDS011;14238;49.496;8.154;2023-04-24T04:39:18;5.10;;;4.80;;
26594;SDS011;14238;49.496;8.154;2023-04-24T04:41:44;5.60;;;5.13;;
26594;SDS011;14238;49.496;8.154;2023-04-24T04:44:13;5.47;;;5.07;;
26594;SDS011;14238;49.496;8.154;2023-04-24T04:46:39;4.70;;;4.30;;
26594;SDS011;14238;49.496;8.154;2023-04-24T04:49:06;5.63;;;5.20;;
26594;SDS011;14238;49.496;8.154;2023-04-24T04:51:33;5.10;;;4.80;;
26594;SDS011;14238;49.496;8.154;2023-04-24T04:53:59;5.60;;;5.10;;
26594;SDS011;14238;49.496;8.154;2023-04-24T04:56:25;5.30;;;4.80;;
26594;SDS011;14238;49.496;8.154;2023-04-24T04:58:51;5.53;;;5.10;;
26594;SDS011;14238;49.496;8.154;2023-04-24T05:01:16;5.93;;;5.37;;
26594;SDS011;14238;49.496;8.154;2023-04-24T05:03:42;6.17;;;5.70;;
26594;SDS011;14238;49.496;8.154;2023-04-24T05:06:07;5.70;;;5.30;;
26594;SDS011;14238;49.496;8.154;2023-04-24T05:08:33;5.73;;;5.33;;
26594;SDS011;14238;49.496;8.154;2023-04-24T05:10:59;6.10;;;5.60;;
26594;SDS011;14238;49.496;8.154;2023-04-24T05:13:25;6.00;;;5.60;;
26594;SDS011;14238;49.496;8.154;2023-04-24T05:15:50;7.40;;;6.80;;
26594;SDS011;14238;49.496;8.154;2023-04-24T05:18:16;6.13;;;5.40;;
26594;SDS011;14238;49.496;8.154;2023-04-24T05:20:41;5.40;;;5.00;;
26594;SDS011;14238;49.496;8.154;2023-04-24T05:23:08;6.50;;;5.93;;
26594;SDS011;14238;49.496;8.154;2023-04-24T05:25:34;6.70;;;6.10;;
26594;SDS011;14238;49.496;8.154;2023-04-24T05:28:01;7.30;;;6.70;;
26594;SDS011;14238;49.496;8.154;2023-04-24T05:30:27;8.33;;;7.40;;
26594;SDS011;14238;49.496;8.154;2023-04-24T05:32:52;7.07;;;6.57;;
26594;SDS011;14238;49.496;8.154;2023-04-24T05:35:19;7.40;;;6.70;;
26594;SDS011;14238;49.496;8.154;2023-04-24T05:37:44;7.03;;;6.27;;
26594;SDS011;14238;49.496;8.154;2023-04-24T05:40:10;7.33;;;6.73;;
26594;SDS011;14238;49.496;8.154;2023-04-24T05:42:36;8.17;;;7.10;;
26594;SDS011;14238;49.496;8.154;2023-04-24T05:45:01;6.93;;;6.23;;
26594;SDS011;14238;49.496;8.154;2023-04-24T05:47:27;7.10;;;6.17;;
26594;SDS011;14238;49.496;8.154;2023-04-24T05:49:53;6.93;;;6.33;;
26594;SDS011;14238;49.496;8.154;2023-04-24T05:52:18;7.40;;;6.70;;
26594;SDS011;14238;49.496;8.154;2023-04-24T05:54:44;7.10;;;6.30;;
26594;SDS011;14238;49.496;8.154;2023-04-24T05:57:10;5.70;;;5.30;;
26594;SDS011;14238;49.496;8.154;2023-04-24T05:59:36;5.37;;;4.87;;
26594;SDS011;14238;49.496;8.154;2023-04-24T06:02:05;6.27;;;5.87;;
26594;SDS011;14238;49.496;8.154;2023-04-24T06:04:31;7.17;;;4.93;;
26594;SDS011;14238;49.496;8.154;2023-04-24T06:06:57;5.53;;;5.07;;
26594;SDS011;14238;49.496;8.154;2023-04-24T06:09:24;5.80;;;5.30;;
26594;SDS011;14238;49.496;8.154;2023-04-24T06:11:50;5.37;;;4.73;;
26594;SDS011;14238;49.496;8.154;2023-04-24T06:14:18;5.40;;;5.00;;
26594;SDS011;14238;49.496;8.154;2023-04-24T06:16:43;6.57;;;5.00;;
26594;SDS011;14238;49.496;8.154;2023-04-24T06:19:09;5.07;;;4.63;;
26594;SDS011;14238;49.496;8.154;2023-04-24T06:21:35;5.83;;;5.20;;
26594;SDS011;14238;49.496;8.154;2023-04-24T06:24:00;4.70;;;4.40;;
26594;SDS011;14238;49.496;8.154;2023-04-24T06:26:26;4.90;;;4.60;;
26594;SDS011;14238;49.496;8.154;2023-04-24T06:28:52;6.83;;;4.00;;
26594;SDS011;14238;49.496;8.154;2023-04-24T06:31:21;4.40;;;4.00;;
26594;SDS011;14238;49.496;8.154;2023-04-24T06:33:48;4.33;;;4.07;;
26594;SDS011;14238;49.496;8.154;2023-04-24T06:36:14;4.53;;;4.13;;
26594;SDS011;14238;49.496;8.154;2023-04-24T06:38:40;4.50;;;4.10;;
26594;SDS011;14238;49.496;8.154;2023-04-24T06:41:06;4.00;;;3.67;;
26594;SDS011;14238;49.496;8.154;2023-04-24T06:43:31;4.13;;;3.90;;
26594;SDS011;14238;49.496;8.154;2023-04-24T06:45:57;4.57;;;4.17;;
26594;SDS011;14238;49.496;8.154;2023-04-24T06:48:24;4.40;;;4.10;;
26594;SDS011;14238;49.496;8.154;2023-04-24T06:50:50;4.03;;;3.80;;
26594;SDS011;14238;49.496;8.154;2023-04-24T06:53:16;5.00;;;4.70;;
26594;SDS011;14238;49.496;8.154;2023-04-24T06:55:42;4.20;;;3.80;;
26594;SDS011;14238;49.496;8.154;2023-04-24T06:58:11;4.30;;;4.00;;
26594;SDS011;14238;49.496;8.154;2023-04-24T07:00:37;4.70;;;4.17;;
26594;SDS011;14238;49.496;8.154;2023-04-24T07:03:03;3.77;;;3.47;;
26594;SDS011;14238;49.496;8.154;2023-04-24T07:05:30;3.80;;;3.60;;
26594;SDS011;14238;49.496;8.154;2023-04-24T07:07:56;6.00;;;3.23;;
26594;SDS011;14238;49.496;8.154;2023-04-24T07:10:23;3.67;;;3.43;;
26594;SDS011;14238;49.496;8.154;2023-04-24T07:12:49;3.93;;;3.60;;
26594;SDS011;14238;49.496;8.154;2023-04-24T07:15:15;3.43;;;2.80;;
26594;SDS011;14238;49.496;8.154;2023-04-24T07:17:41;3.23;;;3.03;;
26594;SDS011;14238;49.496;8.154;2023-04-24T07:20:09;3.57;;;3.27;;
26594;SDS011;14238;49.496;8.154;2023-04-24T07:22:36;3.33;;;3.00;;
26594;SDS011;14238;49.496;8.154;2023-04-24T07:25:02;3.80;;;3.40;;
26594;SDS011;14238;49.496;8.154;2023-04-24T07:27:28;2.90;;;2.70;;
26594;SDS011;14238;49.496;8.154;2023-04-24T07:29:54;3.23;;;3.03;;
26594;SDS011;14238;49.496;8.154;2023-04-24T07:32:19;3.10;;;2.80;;
26594;SDS011;14238;49.496;8.154;2023-04-24T07:34:45;3.83;;;3.63;;
26594;SDS011;14238;49.496;8.154;2023-04-24T07:37:11;3.47;;;3.23;;
26594;SDS011;14238;49.496;8.154;2023-04-24T07:39:36;3.47;;;3.27;;
26594;SDS011;14238;49.496;8.154;2023-04-24T07:42:02;3.30;;;3.10;;
26594;SDS011;14238;49.496;8.154;2023-04-24T07:44:28;2.83;;;2.63;;
26594;SDS011;14238;49.496;8.154;2023-04-24T07:46:54;2.73;;;2.40;;
26594;SDS011;14238;49.496;8.154;2023-04-24T07:49:20;2.50;;;2.40;;
26594;SDS011;14238;49.496;8.154;2023-04-24T07:51:46;2.90;;;2.70;;
26594;SDS011;14238;49.496;8.154;2023-04-24T07:54:11;2.70;;;2.60;;
26594;SDS011;14238;49.496;8.154;2023-04-24T07:56:37;2.80;;;2.60;;
26594;SDS011;14238;49.496;8.154;2023-04-24T07:59:06;2.90;;;2.80;;
26594;SDS011;14238;49.496;8.154;2023-04-24T08:01:32;3.00;;;2.80;;
26594;SDS011;14238;49.496;8.154;2023-04-24T08:03:58;3.10;;;2.90;;
26594;SDS011;14238;49.496;8.154;2023-04-24T08:06:23;3.60;;;2.80;;
26594;SDS011;14238;49.496;8.154;2023-04-24T08:08:50;3.23;;;2.60;;
26594;SDS011;14238;49.496;8.154;2023-04-24T08:11:16;5.07;;;4.20;;
26594;SDS011;14238;49.496;8.154;2023-04-24T08:13:42;3.37;;;3.17;;
26594;SDS011;14238;49.496;8.154;2023-04-24T08:16:07;3.53;;;3.27;;
26594;SDS011;14238;49.496;8.154;2023-04-24T08:18:33;3.77;;;3.57;;
26594;SDS011;14238;49.496;8.154;2023-04-24T08:21:00;4.10;;;3.80;;
26594;SDS011;14238;49.496;8.154;2023-04-24T08:23:26;3.40;;;3.10;;
26594;SDS011;14238;49.496;8.154;2023-04-24T08:25:52;3.40;;;3.20;;
26594;SDS011;14238;49.496;8.154;2023-04-24T08:28:17;3.50;;;3.30;;
26594;SDS011;14238;49.496;8.154;2023-04-24T08:30:45;3.43;;;3.13;;
26594;SDS011;14238;49.496;8.154;2023-04-24T08:33:12;3.30;;;3.10;;
26594;SDS011;14238;49.496;8.154;2023-04-24T08:35:38;3.27;;;3.10;;
26594;SDS011;14238;49.496;8.154;2023-04-24T08:38:04;4.00;;;3.70;;
26594;SDS011;14238;49.496;8.154;2023-04-24T08:40:29;3.70;;;3.40;;
26594;SDS011;14238;49.496;8.154;2023-04-24T08:42:59;4.33;;;3.80;;
26594;SDS011;14238;49.496;8.154;2023-04-24T08:45:25;3.30;;;3.00;;
26594;SDS011;14238;49.496;8.154;2023-04-24T08:47:54;3.60;;;3.40;;
26594;SDS011;14238;49.496;8.154;2023-04-24T08:50:20;3.37;;;3.17;;
26594;SDS011;14238;49.496;8.154;2023-04-24T08:52:49;3.50;;;3.30;;
26594;SDS011;14238;49.496;8.154;2023-04-24T08:55:15;8.60;;;3.30;;
26594;SDS011;14238;49.496;8.154;2023-04-24T08:57:43;4.03;;;3.37;;
26594;SDS011;14238;49.496;8.154;2023-04-24T09:00:10;3.37;;;3.17;;
26594;SDS011;14238;49.496;8.154;2023-04-24T09:02:36;3.80;;;3.50;;
26594;SDS011;14238;49.496;8.154;2023-04-24T09:05:06;3.73;;;3.43;;
26594;SDS011;14238;49.496;8.154;2023-04-24T09:07:33;3.80;;;3.50;;
26594;SDS011;14238;49.496;8.154;2023-04-24T09:10:01;4.00;;;3.70;;
26594;SDS011;14238;49.496;8.154;2023-04-24T09:12:27;3.87;;;3.67;;
26594;SDS011;14238;49.496;8.154;2023-04-24T09:14:53;3.80;;;3.40;;
26594;SDS011;14238;49.496;8.154;2023-04-24T09:17:20;4.33;;;4.03;;
26594;SDS011;14238;49.496;8.154;2023-04-24T09:19:47;3.80;;;3.53;;
26594;SDS011;14238;49.496;8.154;2023-04-24T09:22:13;4.10;;;3.80;;
26594;SDS011;14238;49.496;8.154;2023-04-24T09:24:39;4.27;;;3.80;;
26594;SDS011;14238;49.496;8.154;2023-04-24T09:27:05;3.50;;;3.30;;
26594;SDS011;14238;49.496;8.154;2023-04-24T09:29:32;4.47;;;3.97;;
26594;SDS011;14238;49.496;8.154;2023-04-24T09:31:58;4.10;;;3.70;;
26594;SDS011;14238;49.496;8.154;2023-04-24T09:34:24;4.63;;;4.30;;
26594;SDS011;14238;49.496;8.154;2023-04-24T09:36:51;4.17;;;3.87;;
26594;SDS011;14238;49.496;8.154;2023-04-24T09:39:17;3.53;;;3.33;;
26594;SDS011;14238;49.496;8.154;2023-04-24T09:44:15;3.50;;;3.30;;
26594;SDS011;14238;49.496;8.154;2023-04-24T09:46:54;3.03;;;2.93;;
26594;SDS011;14238;49.496;8.154;2023-04-24T09:49:22;3.20;;;3.00;;
26594;SDS011;14238;49.496;8.154;2023-04-24T09:51:52;3.03;;;2.70;;
26594;SDS011;14238;49.496;8.154;2023-04-24T09:54:27;3.50;;;3.30;;
26594;SDS011;14238;49.496;8.154;2023-04-24T09:56:54;2.93;;;2.73;;
26594;SDS011;14238;49.496;8.154;2023-04-24T09:59:20;3.10;;;2.87;;
26594;SDS011;14238;49.496;8.154;2023-04-24T10:01:45;3.17;;;2.97;;
26594;SDS011;14238;49.496;8.154;2023-04-24T10:06:49;3.30;;;3.10;;
26594;SDS011;14238;49.496;8.154;2023-04-24T10:09:16;3.80;;;3.60;;
26594;SDS011;14238;49.496;8.154;2023-04-24T10:11:44;3.00;;;2.80;;
26594;SDS011;14238;49.496;8.154;2023-04-24T10:14:15;4.33;;;4.03;;
26594;SDS011;14238;49.496;8.154;2023-04-24T10:16:42;3.53;;;3.23;;
26594;SDS011;14238;49.496;8.154;2023-04-24T10:19:08;4.03;;;3.70;;
26594;SDS011;14238;49.496;8.154;2023-04-24T10:21:35;3.67;;;3.37;;
26594;SDS011;14238;49.496;8.154;2023-04-24T10:24:07;4.20;;;3.90;;
26594;SDS011;14238;49.496;8.154;2023-04-24T10:26:36;4.17;;;3.80;;
26594;SDS011;14238;49.496;8.154;2023-04-24T10:29:03;5.40;;;4.00;;
26594;SDS011;14238;49.496;8.154;2023-04-24T10:31:34;4.10;;;3.80;;
26594;SDS011;14238;49.496;8.154;2023-04-24T10:34:01;4.13;;;3.83;;
26594;SDS011;14238;49.496;8.154;2023-04-24T10:36:28;3.83;;;3.57;;
26594;SDS011;14238;49.496;8.154;2023-04-24T10:38:57;4.23;;;3.80;;
26594;SDS011;14238;49.496;8.154;2023-04-24T10:41:25;4.17;;;3.87;;
26594;SDS011;14238;49.496;8.154;2023-04-24T10:44:04;4.43;;;4.03;;
26594;SDS011;14238;49.496;8.154;2023-04-24T10:46:34;4.90;;;4.50;;
26594;SDS011;14238;49.496;8.154;2023-04-24T10:49:03;4.73;;;4.43;;
26594;SDS011;14238;49.496;8.154;2023-04-24T10:51:46;4.33;;;3.93;;
26594;SDS011;14238;49.496;8.154;2023-04-24T11:02:42;4.10;;;3.70;;
26594;SDS011;14238;49.496;8.154;2023-04-24T11:05:17;4.63;;;4.03;;
26594;SDS011;14238;49.496;8.154;2023-04-24T11:10:45;4.70;;;4.37;;
26594;SDS011;14238;49.496;8.154;2023-04-24T11:13:13;4.87;;;4.57;;
26594;SDS011;14238;49.496;8.154;2023-04-24T11:15:41;4.13;;;3.83;;
26594;SDS011;14238;49.496;8.154;2023-04-24T11:18:12;5.00;;;4.63;;
26594;SDS011;14238;49.496;8.154;2023-04-24T11:20:41;5.00;;;4.60;;
26594;SDS011;14238;49.496;8.154;2023-04-24T11:23:07;4.57;;;4.27;;
26594;SDS011;14238;49.496;8.154;2023-04-24T11:25:33;5.10;;;4.70;;
26594;SDS011;14238;49.496;8.154;2023-04-24T11:28:04;4.97;;;4.53;;
26594;SDS011;14238;49.496;8.154;2023-04-24T11:30:31;4.60;;;4.30;;
26594;SDS011;14238;49.496;8.154;2023-04-24T11:33:04;5.40;;;4.97;;
26594;SDS011;14238;49.496;8.154;2023-04-24T11:35:30;5.40;;;4.90;;
26594;SDS011;14238;49.496;8.154;2023-04-24T11:38:02;5.47;;;4.10;;
26594;SDS011;14238;49.496;8.154;2023-04-24T11:40:28;4.57;;;4.17;;
26594;SDS011;14238;49.496;8.154;2023-04-24T11:42:53;7.87;;;5.07;;
26594;SDS011;14238;49.496;8.154;2023-04-24T11:45:30;5.17;;;4.77;;
26594;SDS011;14238;49.496;8.154;2023-04-24T11:47:56;5.80;;;5.37;;
26594;SDS011;14238;49.496;8.154;2023-04-24T11:50:22;5.70;;;5.20;;
26594;SDS011;14238;49.496;8.154;2023-04-24T11:52:50;4.60;;;4.20;;
26594;SDS011;14238;49.496;8.154;2023-04-24T12:00:17;6.50;;;4.83;;
26594;SDS011;14238;49.496;8.154;2023-04-24T12:02:45;4.80;;;4.40;;
26594;SDS011;14238;49.496;8.154;2023-04-24T12:05:24;4.87;;;4.57;;
26594;SDS011;14238;49.496;8.154;2023-04-24T12:07:51;4.57;;;4.17;;
26594;SDS011;14238;49.496;8.154;2023-04-24T12:10:23;5.67;;;5.23;;
26594;SDS011;14238;49.496;8.154;2023-04-24T12:12:50;5.60;;;4.63;;
26594;SDS011;14238;49.496;8.154;2023-04-24T12:15:17;4.57;;;4.17;;
26594;SDS011;14238;49.496;8.154;2023-04-24T12:17:44;4.90;;;4.50;;
26594;SDS011;14238;49.496;8.154;2023-04-24T12:20:10;5.97;;;5.37;;
26594;SDS011;14238;49.496;8.154;2023-04-24T12:25:12;5.13;;;4.73;;
26594;SDS011;14238;49.496;8.154;2023-04-24T12:27:38;4.60;;;4.30;;
26594;SDS011;14238;49.496;8.154;2023-04-24T12:30:05;5.30;;;4.90;;
26594;SDS011;14238;49.496;8.154;2023-04-24T12:32:34;5.57;;;5.13;;
26594;SDS011;14238;49.496;8.154;2023-04-24T12:35:00;5.07;;;4.63;;
26594;SDS011;14238;49.496;8.154;2023-04-24T12:37:26;4.30;;;4.00;;
26594;SDS011;14238;49.496;8.154;2023-04-24T12:40:07;5.20;;;4.70;;
26594;SDS011;14238;49.496;8.154;2023-04-24T12:42:47;4.53;;;4.13;;
26594;SDS011;14238;49.496;8.154;2023-04-24T12:45:14;4.97;;;4.50;;
26594;SDS011;14238;49.496;8.154;2023-04-24T12:47:40;4.50;;;4.20;;
26594;SDS011;14238;49.496;8.154;2023-04-24T12:50:07;4.63;;;4.30;;
26594;SDS011;14238;49.496;8.154;2023-04-24T12:52:33;4.83;;;4.43;;
26594;SDS011;14238;49.496;8.154;2023-04-24T12:55:00;6.00;;;4.00;;
26594;SDS011;14238;49.496;8.154;2023-04-24T12:57:26;4.90;;;4.43;;
26594;SDS011;14238;49.496;8.154;2023-04-24T12:59:56;6.00;;;4.40;;
26594;SDS011;14238;49.496;8.154;2023-04-24T13:02:23;5.03;;;4.57;;
26594;SDS011;14238;49.496;8.154;2023-04-24T13:04:50;4.57;;;4.03;;
26594;SDS011;14238;49.496;8.154;2023-04-24T13:07:16;4.53;;;4.23;;
26594;SDS011;14238;49.496;8.154;2023-04-24T13:09:42;4.50;;;4.03;;
26594;SDS011;14238;49.496;8.154;2023-04-24T13:12:09;4.30;;;3.90;;
26594;SDS011;14238;49.496;8.154;2023-04-24T13:14:35;4.50;;;4.20;;
26594;SDS011;14238;49.496;8.154;2023-04-24T13:17:01;4.70;;;4.10;;
26594;SDS011;14238;49.496;8.154;2023-04-24T13:19:27;4.27;;;3.90;;
26594;SDS011;14238;49.496;8.154;2023-04-24T13:21:54;4.47;;;4.07;;
26594;SDS011;14238;49.496;8.154;2023-04-24T13:24:21;4.63;;;4.23;;
26594;SDS011;14238;49.496;8.154;2023-04-24T13:26:51;5.30;;;4.90;;
26594;SDS011;14238;49.496;8.154;2023-04-24T13:29:17;4.40;;;4.10;;
26594;SDS011;14238;49.496;8.154;2023-04-24T13:31:42;4.30;;;4.00;;
26594;SDS011;14238;49.496;8.154;2023-04-24T13:34:08;5.30;;;4.87;;
26594;SDS011;14238;49.496;8.154;2023-04-24T13:36:34;4.70;;;4.30;;
26594;SDS011;14238;49.496;8.154;2023-04-24T13:39:00;4.87;;;4.47;;
26594;SDS011;14238;49.496;8.154;2023-04-24T13:41:26;4.40;;;4.10;;
26594;SDS011;14238;49.496;8.154;2023-04-24T13:43:51;4.50;;;4.20;;
26594;SDS011;14238;49.496;8.154;2023-04-24T13:46:17;4.30;;;3.90;;
26594;SDS011;14238;49.496;8.154;2023-04-24T13:48:42;4.43;;;4.13;;
26594;SDS011;14238;49.496;8.154;2023-04-24T13:51:08;4.90;;;4.50;;
26594;SDS011;14238;49.496;8.154;2023-04-24T13:53:33;4.53;;;4.23;;
26594;SDS011;14238;49.496;8.154;2023-04-24T13:56:03;4.37;;;3.97;;
26594;SDS011;14238;49.496;8.154;2023-04-24T13:58:28;5.00;;;4.43;;
26594;SDS011;14238;49.496;8.154;2023-04-24T14:00:54;4.83;;;3.43;;
26594;SDS011;14238;49.496;8.154;2023-04-24T14:03:20;3.73;;;3.53;;
26594;SDS011;14238;49.496;8.154;2023-04-24T14:05:46;4.40;;;4.10;;
26594;SDS011;14238;49.496;8.154;2023-04-24T14:08:11;3.87;;;3.53;;
26594;SDS011;14238;49.496;8.154;2023-04-24T14:10:37;3.30;;;3.10;;
26594;SDS011;14238;49.496;8.154;2023-04-24T14:13:02;4.33;;;4.03;;
26594;SDS011;14238;49.496;8.154;2023-04-24T14:15:28;4.80;;;4.43;;
26594;SDS011;14238;49.496;8.154;2023-04-24T14:17:54;5.37;;;4.90;;
26594;SDS011;14238;49.496;8.154;2023-04-24T14:20:19;5.40;;;5.00;;
26594;SDS011;14238;49.496;8.154;2023-04-24T14:22:45;10.23;;;5.37;;
26594;SDS011;14238;49.496;8.154;2023-04-24T14:25:10;5.33;;;4.83;;
26594;SDS011;14238;49.496;8.154;2023-04-24T14:27:36;5.20;;;4.80;;
26594;SDS011;14238;49.496;8.154;2023-04-24T14:30:02;5.00;;;4.67;;
26594;SDS011;14238;49.496;8.154;2023-04-24T14:32:28;5.33;;;4.90;;
26594;SDS011;14238;49.496;8.154;2023-04-24T14:34:53;4.47;;;4.17;;
26594;SDS011;14238;49.496;8.154;2023-04-24T14:37:19;4.60;;;4.20;;
26594;SDS011;14238;49.496;8.154;2023-04-24T14:39:45;4.00;;;3.70;;
26594;SDS011;14238;49.496;8.154;2023-04-24T14:42:10;4.50;;;4.20;;
26594;SDS011;14238;49.496;8.154;2023-04-24T14:44:36;4.03;;;3.70;;
26594;SDS011;14238;49.496;8.154;2023-04-24T14:47:01;4.00;;;3.80;;
26594;SDS011;14238;49.496;8.154;2023-04-24T14:49:27;4.40;;;4.00;;
26594;SDS011;14238;49.496;8.154;2023-04-24T14:51:52;4.13;;;3.83;;
26594;SDS011;14238;49.496;8.154;2023-04-24T14:54:18;4.37;;;3.97;;
26594;SDS011;14238;49.496;8.154;2023-04-24T14:56:44;5.63;;;5.13;;
26594;SDS011;14238;49.496;8.154;2023-04-24T14:59:10;5.47;;;4.83;;
26594;SDS011;14238;49.496;8.154;2023-04-24T15:01:35;7.87;;;4.47;;
26594;SDS011;14238;49.496;8.154;2023-04-24T15:04:01;5.80;;;4.43;;
26594;SDS011;14238;49.496;8.154;2023-04-24T15:06:26;3.90;;;3.60;;
26594;SDS011;14238;49.496;8.154;2023-04-24T15:08:52;4.07;;;3.87;;